Time;durP1;ratioP1;P1;durP2;ratioP2;P2;SDS_P1;SDS_P2;PMS_P1;PMS_P2;Temp;Humidity;BMP_temperature;BMP_pressure;BME280_temperature;BME280_humidity;BME280_pressure;Samples;Min_cycle;Max_cycle;Signal;HPM_P1;HPM_P2
2021/12/18 00:02:00;;;;;;;20.77;10.13;;;;;;;7.24;98.04;103068.78;5028859;28;20206;-84
2021/12/18 00:04:27;;;;;;;19.17;8.70;;;;;;;7.24;97.85;103059.97;5053354;28;20296;-84
2021/12/18 00:06:54;;;;;;;13.87;9.17;;;;;;;7.23;97.73;103060.84;5047126;28;20237;-81
2021/12/18 00:09:21;;;;;;;17.27;9.17;;;;;;;7.22;98.01;103067.91;5036400;28;20668;-83
2021/12/18 00:11:50;;;;;;;12.63;7.57;;;;;;;7.22;98.06;103075.88;5035651;28;20297;-83
2021/12/18 00:14:17;;;;;;;18.03;8.57;;;;;;;7.22;97.60;103069.69;5036109;28;20566;-83
2021/12/18 00:16:43;;;;;;;13.20;7.03;;;;;;;7.21;98.00;103078.53;5035600;28;20226;-84
2021/12/18 00:19:10;;;;;;;13.57;6.77;;;;;;;7.20;97.35;103084.72;5036264;28;20210;-83
2021/12/18 00:21:37;;;;;;;12.60;6.97;;;;;;;7.19;98.18;103077.66;5036139;28;20216;-82
2021/12/18 00:24:05;;;;;;;12.53;6.23;;;;;;;7.20;98.55;103082.97;5036467;28;20563;-83
2021/12/18 00:26:31;;;;;;;11.23;6.67;;;;;;;7.18;98.09;103079.44;5035558;28;20238;-83
2021/12/18 00:29:00;;;;;;;11.33;6.63;;;;;;;7.19;97.78;103090.91;5036158;28;20206;-83
2021/12/18 00:31:26;;;;;;;10.10;6.13;;;;;;;7.18;97.86;103091.81;5036167;28;20229;-83
2021/12/18 00:33:53;;;;;;;11.50;6.83;;;;;;;7.18;98.23;103090.03;5036796;28;20206;-82
2021/12/18 00:36:19;;;;;;;10.60;6.37;;;;;;;7.18;97.94;103082.09;5036957;28;20218;-82
2021/12/18 00:38:46;;;;;;;12.70;6.73;;;;;;;7.19;97.92;103090.91;5036615;28;20213;-83
2021/12/18 00:41:34;;;;;;;13.33;6.57;;;;;;;7.19;97.87;103086.50;5036133;28;20206;-83
2021/12/18 00:44:03;;;;;;;11.17;6.33;;;;;;;7.19;97.98;103089.16;5037157;28;20532;-83
2021/12/18 00:46:32;;;;;;;12.10;6.40;;;;;;;7.19;98.28;103090.91;5039627;28;20681;-82
2021/12/18 00:48:58;;;;;;;10.77;5.90;;;;;;;7.20;98.27;103092.69;5049275;28;20205;-83
2021/12/18 00:51:25;;;;;;;11.27;6.03;;;;;;;7.20;97.64;103092.69;5038618;28;20221;-83
2021/12/18 00:53:52;;;;;;;11.00;5.60;;;;;;;7.20;98.15;103088.25;5035991;28;20696;-83
2021/12/18 00:56:19;;;;;;;11.43;6.40;;;;;;;7.21;98.21;103087.38;5035722;28;20218;-83
2021/12/18 00:58:46;;;;;;;10.87;5.77;;;;;;;7.21;98.32;103083.84;5035790;28;20285;-83
2021/12/18 01:01:14;;;;;;;9.47;5.50;;;;;;;7.22;98.38;103088.25;5035609;28;20205;-84
2021/12/18 01:03:42;;;;;;;9.67;5.23;;;;;;;7.22;97.76;103088.25;5034825;28;20202;-84
2021/12/18 01:06:09;;;;;;;10.17;5.57;;;;;;;7.22;98.01;103086.47;5034677;28;20325;-82
2021/12/18 01:08:35;;;;;;;11.77;6.37;;;;;;;7.22;98.01;103083.81;5034943;28;20209;-83
2021/12/18 01:11:31;;;;;;;11.43;5.80;;;;;;;7.22;97.58;103086.47;5034813;28;20206;-83
2021/12/18 01:14:15;;;;;;;13.80;6.50;;;;;;;7.21;97.42;103078.53;5035212;28;20198;-82
2021/12/18 01:16:52;;;;;;;10.67;6.43;;;;;;;7.19;98.02;103085.63;5015020;28;20642;-82
2021/12/18 01:24:58;;;;;;;13.67;6.57;;;;;;;7.16;97.15;103083.91;5041329;28;20572;-82
2021/12/18 01:27:25;;;;;;;10.80;6.10;;;;;;;7.14;97.36;103085.69;5054635;28;20247;-82
2021/12/18 01:29:51;;;;;;;13.30;7.03;;;;;;;7.15;97.64;103089.22;5055109;28;21006;-82
2021/12/18 01:32:20;;;;;;;13.37;7.07;;;;;;;7.13;97.76;103094.53;5055335;28;20567;-83
2021/12/18 01:34:46;;;;;;;13.40;6.70;;;;;;;7.13;97.69;103089.22;5054689;28;20548;-82
2021/12/18 01:37:13;;;;;;;16.47;7.63;;;;;;;7.12;97.18;103095.44;5054945;28;20695;-80
2021/12/18 01:39:39;;;;;;;11.70;6.80;;;;;;;7.13;97.61;103093.66;5045468;28;20200;-81
2021/12/18 01:42:36;;;;;;;13.07;7.13;;;;;;;7.12;97.15;103090.13;5034521;28;20226;-83
2021/12/18 01:45:08;;;;;;;13.23;6.90;;;;;;;7.09;97.33;103099.88;5031389;28;20264;-82
2021/12/18 01:53:07;;;;;;;11.07;4.73;;;;;;;7.06;97.34;103108.72;5045511;28;20205;-83
2021/12/18 01:55:36;;;;;;;8.73;4.40;;;;;;;7.05;97.67;103104.31;5014557;28;20227;-82
2021/12/18 01:58:03;;;;;;;9.33;3.80;;;;;;;7.03;97.34;103102.56;5040183;28;20586;-83
2021/12/18 02:00:34;;;;;;;6.57;3.80;;;;;;;7.03;97.61;103103.44;5046783;28;20289;-83
2021/12/18 02:03:03;;;;;;;6.27;3.43;;;;;;;7.03;97.97;103091.97;5046755;28;20208;-82
2021/12/18 02:05:30;;;;;;;9.30;4.47;;;;;;;7.03;97.82;103089.31;5034474;28;20597;-82
2021/12/18 02:07:57;;;;;;;8.30;4.40;;;;;;;7.03;97.74;103092.84;5044157;28;20229;-83
2021/12/18 02:10:27;;;;;;;10.33;5.30;;;;;;;7.05;97.67;103084.88;5053786;28;20319;-82
2021/12/18 02:13:00;;;;;;;9.17;4.47;;;;;;;7.04;97.82;103083.13;5041281;28;20217;-82
2021/12/18 02:21:06;;;;;;;7.67;3.97;;;;;;;7.00;97.55;103084.94;5056122;28;20212;-84
2021/12/18 02:23:33;;;;;;;7.50;3.93;;;;;;;7.01;97.20;103083.16;5044429;28;20204;-82
2021/12/18 02:25:59;;;;;;;7.57;3.63;;;;;;;7.00;98.02;103092.00;5034546;28;20312;-83
2021/12/18 02:28:27;;;;;;;5.77;3.53;;;;;;;7.00;97.74;103086.69;5035075;28;20214;-83
2021/12/18 02:30:56;;;;;;;6.70;3.60;;;;;;;7.00;97.02;103086.69;5035116;28;20206;-82
2021/12/18 02:33:24;;;;;;;6.97;4.00;;;;;;;6.99;97.46;103083.16;5039899;28;20198;-82
2021/12/18 02:35:53;;;;;;;7.90;3.83;;;;;;;6.97;97.67;103069.97;5042676;28;20226;-81
2021/12/18 02:38:29;;;;;;;7.77;3.20;;;;;;;6.95;97.68;103068.22;5050480;28;20305;-83
2021/12/18 02:41:07;;;;;;;6.17;3.30;;;;;;;6.95;97.77;103076.16;5040774;28;20205;-83
2021/12/18 02:43:36;;;;;;;7.80;3.80;;;;;;;6.95;97.44;103071.75;5047109;28;20226;-83
2021/12/18 02:46:06;;;;;;;7.73;4.17;;;;;;;6.94;97.28;103067.34;5034392;28;20708;-81
2021/12/18 02:48:35;;;;;;;7.33;3.97;;;;;;;6.94;97.42;103063.81;5052591;28;20205;-82
2021/12/18 02:51:03;;;;;;;8.13;4.43;;;;;;;6.93;97.64;103065.59;5046242;28;20926;-83
2021/12/18 02:53:32;;;;;;;7.83;3.87;;;;;;;6.92;97.28;103063.81;5053521;28;20232;-83
2021/12/18 02:56:04;;;;;;;8.93;4.37;;;;;;;6.92;97.39;103061.19;5053988;28;20225;-84
2021/12/18 02:58:31;;;;;;;9.63;4.80;;;;;;;6.94;97.26;103061.16;5039939;28;20843;-85
2021/12/18 03:00:59;;;;;;;8.50;4.60;;;;;;;6.91;97.71;103056.78;5040018;28;20278;-84
2021/12/18 03:03:29;;;;;;;8.37;4.60;;;;;;;6.92;97.07;103055.88;5053941;28;20190;-85
2021/12/18 03:06:09;;;;;;;8.53;4.13;;;;;;;6.92;97.54;103047.94;5037011;28;20230;-85
2021/12/18 03:08:51;;;;;;;8.90;4.73;;;;;;;6.92;97.65;103050.59;5030554;28;20260;-84
2021/12/18 03:25:11;;;;;;;14.00;6.47;;;;;;;6.94;98.02;103038.19;5054196;28;20576;-70
2021/12/18 03:27:38;;;;;;;13.07;6.43;;;;;;;6.94;97.88;103038.19;5061728;28;20244;-72
2021/12/18 03:30:06;;;;;;;15.77;7.23;;;;;;;6.93;97.50;103033.78;5064251;28;20209;-71
2021/12/18 03:32:33;;;;;;;14.40;7.40;;;;;;;6.92;97.47;103034.69;5061829;28;20574;-69
2021/12/18 03:34:59;;;;;;;14.03;7.10;;;;;;;6.92;98.10;103029.38;5065741;22;20202;-83
2021/12/18 03:37:28;;;;;;;15.13;7.80;;;;;;;6.91;98.08;103027.63;5030577;28;20637;-83
2021/12/18 03:39:54;;;;;;;13.80;6.03;;;;;;;6.90;97.46;103030.28;5031755;28;20210;-81
2021/12/18 03:42:21;;;;;;;10.63;6.30;;;;;;;6.87;98.08;103031.19;5031846;28;20230;-81
2021/12/18 03:44:48;;;;;;;10.57;5.87;;;;;;;6.87;97.59;103036.50;5031226;28;20216;-82
2021/12/18 03:47:15;;;;;;;10.43;5.20;;;;;;;6.87;97.73;103027.66;5030863;28;20781;-82
2021/12/18 03:49:42;;;;;;;12.10;5.60;;;;;;;6.86;98.15;103025.91;5030959;28;20206;-82
2021/12/18 03:52:09;;;;;;;11.97;6.07;;;;;;;6.85;97.58;103025.03;5031767;28;20206;-84
2021/12/18 03:54:36;;;;;;;13.17;6.90;;;;;;;6.86;97.65;103026.78;5031905;28;20273;-83
2021/12/18 03:57:03;;;;;;;16.57;7.83;;;;;;;6.87;97.85;103032.97;5032316;28;20257;-84
2021/12/18 03:59:30;;;;;;;14.20;6.10;;;;;;;6.86;98.29;103032.09;5031831;28;20204;-84
2021/12/18 04:01:58;;;;;;;14.77;6.70;;;;;;;6.87;97.44;103030.31;5031173;28;20237;-84
2021/12/18 04:04:25;;;;;;;14.53;6.60;;;;;;;6.88;97.60;103022.34;5030858;28;20217;-84
2021/12/18 04:06:52;;;;;;;16.70;7.33;;;;;;;6.87;97.76;103031.19;5029820;28;20237;-82
2021/12/18 04:09:19;;;;;;;13.53;6.77;;;;;;;6.86;97.78;103028.56;5034242;28;20308;-82
2021/12/18 04:11:47;;;;;;;13.57;6.83;;;;;;;6.87;98.08;103027.66;5030588;28;20214;-82
2021/12/18 04:14:17;;;;;;;13.07;6.37;;;;;;;6.86;97.74;103029.44;5036091;28;20214;-82
2021/12/18 04:16:44;;;;;;;14.73;7.63;;;;;;;6.86;97.94;103025.91;5030210;28;20288;-82
2021/12/18 04:19:11;;;;;;;13.23;6.40;;;;;;;6.84;97.43;103023.28;5033806;28;20198;-82
2021/12/18 04:21:37;;;;;;;13.03;6.77;;;;;;;6.84;97.70;103023.28;5038604;28;20322;-83
2021/12/18 04:24:04;;;;;;;10.73;5.70;;;;;;;6.84;97.92;103023.28;5028995;28;20298;-82
2021/12/18 04:26:32;;;;;;;12.30;7.17;;;;;;;6.83;97.67;103016.22;5029070;28;20689;-83
2021/12/18 04:29:03;;;;;;;11.67;6.57;;;;;;;6.82;97.67;103014.47;5029407;28;20218;-84
2021/12/18 04:31:30;;;;;;;11.60;6.10;;;;;;;6.82;97.27;103016.22;5028600;28;20237;-83
2021/12/18 04:33:57;;;;;;;11.20;5.80;;;;;;;6.80;97.86;103018.94;5015549;28;20202;-84
2021/12/18 04:36:23;;;;;;;11.43;5.53;;;;;;;6.79;98.34;103025.13;5015890;28;20767;-83
2021/12/18 04:38:50;;;;;;;11.07;5.47;;;;;;;6.77;97.98;103029.53;5015782;28;20298;-84
2021/12/18 04:41:22;;;;;;;9.00;5.40;;;;;;;6.76;97.72;103022.50;5015723;28;20695;-83
2021/12/18 04:43:49;;;;;;;9.50;5.57;;;;;;;6.75;98.04;103033.97;5015686;28;20283;-83
2021/12/18 04:46:22;;;;;;;12.50;6.00;;;;;;;6.74;97.81;103028.69;5015497;28;20321;-83
2021/12/18 04:48:49;;;;;;;12.10;6.23;;;;;;;6.72;97.95;103026.06;5015443;28;20546;-83
2021/12/18 04:51:16;;;;;;;11.80;6.10;;;;;;;6.71;98.43;103026.94;5016038;28;20634;-84
2021/12/18 04:53:42;;;;;;;13.00;6.43;;;;;;;6.70;97.44;103026.97;5016719;28;20257;-83
2021/12/18 04:56:09;;;;;;;9.00;5.40;;;;;;;6.69;98.00;103028.72;5016140;28;20769;-83
2021/12/18 04:58:36;;;;;;;9.23;6.00;;;;;;;6.68;97.55;103026.97;5016775;28;20206;-84
2021/12/18 05:01:02;;;;;;;9.13;5.70;;;;;;;6.67;98.06;103030.50;5015292;28;20329;-83
2021/12/18 05:03:31;;;;;;;9.93;5.70;;;;;;;6.64;98.06;103025.22;5015136;28;20732;-83
2021/12/18 05:05:59;;;;;;;11.57;6.10;;;;;;;6.63;98.19;103022.63;5016366;28;20242;-83
2021/12/18 05:08:26;;;;;;;11.17;5.50;;;;;;;6.61;98.05;103020.00;5016166;28;20202;-83
2021/12/18 05:10:53;;;;;;;9.33;5.80;;;;;;;6.58;98.54;103020.00;5016325;28;20213;-84
2021/12/18 05:13:19;;;;;;;10.73;6.60;;;;;;;6.58;98.30;103017.38;5016796;28;20654;-84
2021/12/18 05:15:46;;;;;;;10.03;5.40;;;;;;;6.57;98.40;103018.25;5015542;28;20229;-83
2021/12/18 05:18:13;;;;;;;12.03;6.47;;;;;;;6.57;98.16;103020.91;5015532;28;20207;-83
2021/12/18 05:20:41;;;;;;;12.13;6.23;;;;;;;6.56;97.66;103011.22;5014946;28;20210;-83
2021/12/18 05:23:08;;;;;;;10.07;5.50;;;;;;;6.57;98.13;103020.91;5015440;28;20207;-83
2021/12/18 05:25:34;;;;;;;10.23;5.60;;;;;;;6.57;98.10;103023.56;5015642;28;20234;-84
2021/12/18 05:28:01;;;;;;;9.93;6.23;;;;;;;6.57;98.35;103020.91;5015750;28;20211;-84
2021/12/18 05:30:28;;;;;;;11.67;4.63;;;;;;;6.57;97.62;103023.56;5016108;28;20206;-83
2021/12/18 05:32:54;;;;;;;11.33;5.53;;;;;;;6.57;98.37;103028.84;5016776;28;20305;-84
2021/12/18 05:35:21;;;;;;;11.23;5.20;;;;;;;6.55;97.69;103031.50;5015632;28;20592;-83
2021/12/18 05:37:53;;;;;;;9.40;5.40;;;;;;;6.56;97.70;103033.25;5015884;28;20234;-84
2021/12/18 05:40:25;;;;;;;11.40;6.37;;;;;;;6.57;98.29;103028.84;5015708;28;20221;-83
2021/12/18 05:42:53;;;;;;;10.77;6.13;;;;;;;6.57;98.14;103039.44;5015213;28;20214;-83
2021/12/18 05:45:23;;;;;;;11.20;6.27;;;;;;;6.58;97.96;103033.25;5014934;28;20201;-83
2021/12/18 05:47:51;;;;;;;9.93;5.40;;;;;;;6.56;98.45;103037.69;5015940;28;20203;-84
2021/12/18 05:50:27;;;;;;;12.33;5.90;;;;;;;6.56;97.99;103030.63;5015322;28;20245;-84
2021/12/18 05:52:55;;;;;;;10.27;5.43;;;;;;;6.57;97.64;103028.84;5015151;28;20245;-84
2021/12/18 05:55:24;;;;;;;11.27;5.40;;;;;;;6.57;98.18;103031.50;5014668;28;20321;-84
2021/12/18 05:57:51;;;;;;;10.83;5.80;;;;;;;6.58;97.94;103022.66;5014852;28;20199;-83
2021/12/18 06:00:20;;;;;;;10.77;5.47;;;;;;;6.57;98.26;103021.78;5014869;28;20267;-83
2021/12/18 06:02:46;;;;;;;9.47;5.40;;;;;;;6.58;98.45;103020.00;5014568;28;20321;-83
2021/12/18 06:05:13;;;;;;;9.03;5.23;;;;;;;6.58;97.78;103015.59;5013518;28;20721;-83
2021/12/18 06:07:52;;;;;;;9.80;5.17;;;;;;;6.59;98.70;103017.34;4995293;28;20217;-83
2021/12/18 06:10:22;;;;;;;9.47;5.13;;;;;;;6.59;98.82;103019.13;4994796;28;20231;-84
2021/12/18 06:12:49;;;;;;;11.00;5.40;;;;;;;6.58;98.42;103020.91;4994855;28;20210;-84
2021/12/18 06:15:15;;;;;;;11.93;6.40;;;;;;;6.60;98.73;103031.47;4994118;28;20224;-81
2021/12/18 06:17:42;;;;;;;12.33;6.10;;;;;;;6.61;98.28;103030.59;4994303;28;20212;-82
2021/12/18 06:20:10;;;;;;;9.23;5.93;;;;;;;6.61;98.40;103027.94;4993375;28;20214;-82
2021/12/18 06:22:36;;;;;;;10.33;5.77;;;;;;;6.60;98.37;103026.19;4993608;28;20724;-82
2021/12/18 06:25:03;;;;;;;11.87;5.23;;;;;;;6.60;98.36;103028.81;4993284;28;20218;-83
2021/12/18 06:27:31;;;;;;;9.37;4.97;;;;;;;6.60;98.17;103036.78;4993675;28;20566;-82
2021/12/18 06:29:58;;;;;;;7.77;3.53;;;;;;;6.59;98.46;103032.38;4993654;28;20211;-82
2021/12/18 06:32:25;;;;;;;7.27;3.77;;;;;;;6.57;98.55;103035.03;4993550;28;20219;-82
2021/12/18 06:34:51;;;;;;;7.20;3.00;;;;;;;6.53;98.43;103035.06;4993638;28;20222;-82
2021/12/18 06:37:18;;;;;;;8.10;3.93;;;;;;;6.53;97.70;103032.41;4992973;28;20257;-82
2021/12/18 06:39:44;;;;;;;7.77;3.53;;;;;;;6.51;98.50;103024.47;4993735;28;20211;-84
2021/12/18 06:42:11;;;;;;;7.00;3.57;;;;;;;6.51;98.17;103037.72;5019106;28;20219;-84
2021/12/18 06:44:39;;;;;;;6.43;3.40;;;;;;;6.50;98.11;103025.38;5018265;28;20213;-84
2021/12/18 06:47:05;;;;;;;6.13;3.47;;;;;;;6.49;98.54;103028.03;5013785;28;20242;-84
2021/12/18 06:49:32;;;;;;;5.87;3.67;;;;;;;6.49;98.33;103030.66;5019776;28;20566;-84
2021/12/18 06:51:58;;;;;;;7.67;3.70;;;;;;;6.48;98.01;103032.44;5013278;28;20211;-84
2021/12/18 06:54:25;;;;;;;10.20;3.97;;;;;;;6.50;98.17;103035.06;5013318;28;20203;-84
2021/12/18 06:56:51;;;;;;;6.87;4.03;;;;;;;6.50;98.09;103035.06;5018259;28;20917;-83
2021/12/18 06:59:18;;;;;;;7.37;3.70;;;;;;;6.49;97.87;103036.84;5033417;28;20565;-83
2021/12/18 07:01:46;;;;;;;8.47;3.97;;;;;;;6.50;98.05;103037.72;5033410;28;20588;-83
2021/12/18 07:04:12;;;;;;;7.83;4.37;;;;;;;6.48;98.53;103034.22;5033582;28;20557;-83
2021/12/18 07:06:39;;;;;;;9.07;5.07;;;;;;;6.48;98.26;103031.56;5033159;28;20222;-83
2021/12/18 07:09:06;;;;;;;9.40;4.50;;;;;;;6.49;98.25;103034.19;5033244;28;20224;-83
2021/12/18 07:11:32;;;;;;;6.57;3.97;;;;;;;6.50;98.09;103032.44;5033063;28;20301;-83
2021/12/18 07:13:59;;;;;;;7.70;4.00;;;;;;;6.50;98.15;103029.78;5033657;28;20206;-83
2021/12/18 07:16:26;;;;;;;5.20;3.40;;;;;;;6.50;98.29;103033.31;5021263;28;20231;-83
2021/12/18 07:18:53;;;;;;;5.70;3.47;;;;;;;6.50;98.51;103030.66;5013993;28;20983;-83
2021/12/18 07:21:20;;;;;;;7.73;4.53;;;;;;;6.51;97.63;103035.06;5013166;28;20218;-83
2021/12/18 07:23:46;;;;;;;10.70;4.10;;;;;;;6.53;98.23;103037.69;5013665;28;20217;-84
2021/12/18 07:26:13;;;;;;;8.47;4.23;;;;;;;6.53;98.24;103040.34;5013319;28;20223;-84
2021/12/18 07:28:40;;;;;;;7.50;4.10;;;;;;;6.54;98.58;103036.81;5013394;28;20601;-84
2021/12/18 07:31:06;;;;;;;8.33;4.30;;;;;;;6.54;98.49;103035.03;5013420;28;20595;-83
2021/12/18 07:33:35;;;;;;;5.87;2.93;;;;;;;6.55;98.38;103036.81;5013678;28;20202;-82
2021/12/18 07:36:05;;;;;;;7.43;3.50;;;;;;;6.56;98.48;103042.97;5012982;28;20234;-81
2021/12/18 07:38:32;;;;;;;3.57;2.00;;;;;;;6.57;98.25;103036.78;5013238;28;20183;-82
2021/12/18 07:40:58;;;;;;;2.60;1.73;;;;;;;6.56;98.28;103043.84;5013516;28;20235;-82
2021/12/18 07:43:25;;;;;;;5.07;2.43;;;;;;;6.57;98.08;103039.44;5012830;28;20226;-81
2021/12/18 07:45:51;;;;;;;4.10;1.70;;;;;;;6.57;98.12;103042.97;5017108;28;20234;-83
2021/12/18 07:48:18;;;;;;;1.73;1.10;;;;;;;6.57;98.25;103042.09;5014349;28;20203;-83
2021/12/18 07:50:44;;;;;;;3.03;1.23;;;;;;;6.56;98.62;103032.38;5014254;28;20665;-83
2021/12/18 07:53:12;;;;;;;2.07;1.10;;;;;;;6.57;98.57;103042.09;5025905;28;20218;-84
2021/12/18 07:55:39;;;;;;;3.50;1.50;;;;;;;6.57;98.09;103028.84;5012823;28;20227;-82
2021/12/18 07:58:06;;;;;;;2.87;0.97;;;;;;;6.58;98.65;103034.13;5012167;28;20214;-83
2021/12/18 08:00:32;;;;;;;1.90;0.80;;;;;;;6.58;98.23;103036.78;5012364;28;20206;-83
2021/12/18 08:02:59;;;;;;;1.97;1.23;;;;;;;6.60;98.01;103039.41;5011661;28;20219;-83
2021/12/18 08:05:25;;;;;;;2.00;1.20;;;;;;;6.59;98.25;103033.25;5011620;28;20231;-83
2021/12/18 08:07:52;;;;;;;2.60;1.50;;;;;;;6.59;98.30;103033.25;5013545;28;20207;-83
2021/12/18 08:10:20;;;;;;;2.33;1.27;;;;;;;6.61;98.36;103028.81;5015350;28;20205;-81
2021/12/18 08:12:46;;;;;;;3.00;1.40;;;;;;;6.60;98.34;103037.66;5015594;28;20233;-82
2021/12/18 08:15:13;;;;;;;2.27;1.43;;;;;;;6.61;97.97;103035.88;5015483;28;20209;-82
2021/12/18 08:17:40;;;;;;;1.73;1.30;;;;;;;6.61;98.53;103035.88;5016264;28;20293;-82
2021/12/18 08:20:08;;;;;;;3.07;1.40;;;;;;;6.64;98.19;103035.81;5016245;28;20302;-82
2021/12/18 08:22:35;;;;;;;2.57;1.20;;;;;;;6.63;98.50;103034.06;5015238;28;20233;-82
2021/12/18 08:25:02;;;;;;;2.90;1.70;;;;;;;6.65;97.95;103034.06;5017219;28;20696;-82
2021/12/18 08:27:30;;;;;;;1.60;1.10;;;;;;;6.66;98.82;103041.09;5015699;28;20207;-82
2021/12/18 08:29:57;;;;;;;1.57;1.00;;;;;;;6.67;98.09;103034.94;5015387;28;20210;-83
2021/12/18 08:32:23;;;;;;;2.40;1.43;;;;;;;6.68;98.53;103028.75;5015966;28;20394;-83
2021/12/18 08:34:50;;;;;;;3.03;1.43;;;;;;;6.66;98.02;103031.41;5017717;28;20218;-84
2021/12/18 08:37:18;;;;;;;2.33;1.47;;;;;;;6.69;98.75;103030.50;5020650;28;20244;-83
2021/12/18 08:39:44;;;;;;;2.03;1.23;;;;;;;6.68;97.96;103024.31;5016628;28;20215;-82
2021/12/18 08:42:13;;;;;;;1.97;1.30;;;;;;;6.71;98.54;103026.94;5018105;28;20227;-84
2021/12/18 08:44:41;;;;;;;2.57;1.50;;;;;;;6.72;98.40;103020.75;5017934;28;20238;-84
2021/12/18 08:47:11;;;;;;;3.47;1.20;;;;;;;6.71;98.00;103021.66;5019529;28;20241;-85
2021/12/18 08:49:38;;;;;;;2.10;1.17;;;;;;;6.74;98.38;103023.41;5016941;28;20698;-84
2021/12/18 08:52:05;;;;;;;2.33;1.20;;;;;;;6.74;98.04;103020.75;5015987;28;20238;-83
2021/12/18 08:54:34;;;;;;;1.77;1.00;;;;;;;6.73;98.45;103009.28;5016404;28;20195;-84
2021/12/18 08:57:02;;;;;;;1.00;0.80;;;;;;;6.76;98.42;103013.66;5016170;28;20237;-85
2021/12/18 08:59:29;;;;;;;1.33;0.73;;;;;;;6.77;97.86;103016.31;5015980;28;20294;-84
2021/12/18 09:01:57;;;;;;;1.90;1.20;;;;;;;6.78;97.59;103011.88;5015806;28;20250;-83
2021/12/18 09:04:23;;;;;;;1.83;0.90;;;;;;;6.78;97.70;103017.19;5014837;28;20207;-83
2021/12/18 09:06:50;;;;;;;1.60;0.83;;;;;;;6.79;97.88;103014.53;5022442;28;20314;-83
2021/12/18 09:09:16;;;;;;;1.20;0.70;;;;;;;6.79;97.73;103014.53;5014723;28;20661;-83
2021/12/18 09:11:43;;;;;;;1.53;0.80;;;;;;;6.79;98.03;103019.81;5014821;28;20661;-83
2021/12/18 09:14:10;;;;;;;2.33;1.10;;;;;;;6.81;97.95;103014.47;5018274;28;20209;-84
2021/12/18 09:16:36;;;;;;;1.30;1.20;;;;;;;6.82;97.62;103009.16;5015632;28;20230;-84
2021/12/18 09:19:04;;;;;;;2.17;1.30;;;;;;;6.84;98.12;103017.09;5017444;28;20207;-83
2021/12/18 09:21:31;;;;;;;1.90;1.30;;;;;;;6.85;97.35;103010.91;5018935;28;20198;-81
2021/12/18 09:23:57;;;;;;;2.70;1.30;;;;;;;6.87;97.74;103010.00;5016166;28;20314;-83
2021/12/18 09:26:24;;;;;;;2.73;1.83;;;;;;;6.87;98.08;103015.31;5015637;28;20230;-82
2021/12/18 09:28:51;;;;;;;3.27;2.27;;;;;;;6.89;97.25;103002.03;5027172;28;20198;-83
2021/12/18 09:31:18;;;;;;;3.47;2.40;;;;;;;6.90;97.71;103003.81;5014010;28;20222;-83
2021/12/18 09:33:44;;;;;;;3.23;2.43;;;;;;;6.90;97.76;103003.81;5016137;28;20206;-82
2021/12/18 09:36:12;;;;;;;3.20;2.43;;;;;;;6.92;97.41;103004.66;5014241;28;20222;-83
2021/12/18 09:38:39;;;;;;;2.93;2.40;;;;;;;6.93;97.22;102999.34;5014529;28;20229;-83
2021/12/18 09:41:06;;;;;;;7.00;2.37;;;;;;;6.95;97.83;103005.53;5014264;28;20215;-83
2021/12/18 09:43:33;;;;;;;3.90;2.50;;;;;;;6.96;97.38;103001.09;5013921;28;20366;-83
2021/12/18 09:46:04;;;;;;;3.80;2.30;;;;;;;6.97;97.28;102997.56;5013375;28;20305;-82
2021/12/18 09:48:32;;;;;;;2.97;2.47;;;;;;;6.98;97.31;102999.31;5012814;28;20210;-82
2021/12/18 09:50:59;;;;;;;4.50;2.80;;;;;;;6.99;97.22;102997.53;5013123;28;20226;-82
2021/12/18 09:53:30;;;;;;;2.67;2.40;;;;;;;6.99;97.11;102994.91;5013320;28;20226;-82
2021/12/18 09:55:56;;;;;;;3.07;2.33;;;;;;;7.00;96.66;102986.03;5011902;28;20227;-82
2021/12/18 09:58:23;;;;;;;4.70;3.07;;;;;;;7.00;97.05;102989.53;5013119;28;20564;-82
2021/12/18 10:00:49;;;;;;;3.80;3.10;;;;;;;7.01;96.87;102993.06;5012866;28;20813;-83
2021/12/18 10:03:16;;;;;;;4.40;3.37;;;;;;;7.02;96.91;102990.41;5013164;28;20233;-82
2021/12/18 10:05:42;;;;;;;5.70;5.07;;;;;;;7.02;97.06;102986.88;5013292;28;20230;-82
2021/12/18 10:08:12;;;;;;;7.43;5.70;;;;;;;7.01;96.85;102988.66;5013077;28;20201;-83
2021/12/18 10:10:59;;;;;;;5.23;3.93;;;;;;;7.03;96.98;102986.00;5013761;28;20213;-83
2021/12/18 10:13:25;;;;;;;20.90;13.80;;;;;;;7.03;96.49;102989.53;4994308;28;20593;-83
2021/12/18 10:16:09;;;;;;;10.60;7.67;;;;;;;7.03;96.44;102978.91;4994411;28;20725;-83
2021/12/18 10:18:36;;;;;;;16.23;12.23;;;;;;;7.04;96.39;102982.44;5025252;28;20599;-83
2021/12/18 10:21:09;;;;;;;10.40;7.90;;;;;;;7.03;96.30;102970.97;5033558;28;20214;-83
2021/12/18 10:23:35;;;;;;;6.60;4.23;;;;;;;7.04;96.26;102983.31;5031191;28;20739;-82
2021/12/18 10:26:03;;;;;;;5.07;3.30;;;;;;;7.05;96.85;102977.13;5013032;28;20227;-83
2021/12/18 10:28:45;;;;;;;2.60;1.97;;;;;;;7.06;96.31;102980.66;5013061;28;20575;-82
2021/12/18 10:31:11;;;;;;;1.50;1.20;;;;;;;7.05;96.25;102970.97;5012657;28;20225;-83
2021/12/18 10:33:38;;;;;;;4.07;3.20;;;;;;;7.02;95.88;102957.75;5012741;28;20210;-82
2021/12/18 10:36:05;;;;;;;4.00;2.90;;;;;;;7.02;95.77;102963.91;5012754;28;20329;-81
2021/12/18 10:38:38;;;;;;;2.97;2.57;;;;;;;7.01;96.03;102955.97;5013337;28;20225;-82
2021/12/18 10:41:22;;;;;;;4.93;4.43;;;;;;;7.03;96.18;102946.25;5013540;28;20206;-83
2021/12/18 10:44:01;;;;;;;5.93;4.20;;;;;;;7.05;95.95;102944.47;5013150;28;20669;-82
2021/12/18 10:46:29;;;;;;;5.03;3.80;;;;;;;7.05;95.93;102940.03;5013398;28;20233;-82
2021/12/18 10:48:57;;;;;;;4.23;2.87;;;;;;;7.06;95.87;102943.56;5012969;28;20206;-82
2021/12/18 10:51:24;;;;;;;4.20;3.10;;;;;;;7.05;95.62;102941.81;5012625;28;20261;-82
2021/12/18 10:53:53;;;;;;;3.37;1.70;;;;;;;7.08;95.77;102937.34;5012992;28;20665;-81
2021/12/18 10:56:33;;;;;;;5.37;3.33;;;;;;;7.11;95.83;102936.44;5012885;28;20652;-82
2021/12/18 10:58:59;;;;;;;7.60;4.93;;;;;;;7.12;95.95;102936.44;5012229;28;20187;-83
2021/12/18 11:01:26;;;;;;;6.97;4.80;;;;;;;7.14;96.06;102925.81;5011427;28;20199;-83
2021/12/18 11:03:53;;;;;;;7.70;4.73;;;;;;;7.15;95.55;102928.44;5014460;28;20236;-84
2021/12/18 11:06:22;;;;;;;7.70;6.20;;;;;;;7.21;95.43;102924.81;5015727;28;20584;-82
2021/12/18 11:09:10;;;;;;;7.53;6.30;;;;;;;7.22;95.76;102923.91;5017417;28;20215;-83
2021/12/18 11:14:39;;;;;;;9.57;8.47;;;;;;;7.25;95.79;102921.25;5011068;28;20210;-82
2021/12/18 11:17:10;;;;;;;6.00;4.50;;;;;;;7.26;96.02;102912.38;5006993;28;20241;-82
2021/12/18 11:19:37;;;;;;;7.33;5.97;;;;;;;7.26;95.30;102900.00;5012058;28;20206;-82
2021/12/18 11:22:05;;;;;;;3.53;2.40;;;;;;;7.30;95.68;102906.16;5007908;28;20650;-82
2021/12/18 11:24:34;;;;;;;6.57;3.10;;;;;;;7.29;95.11;102907.06;5014333;28;20229;-84
2021/12/18 11:27:06;;;;;;;4.70;3.40;;;;;;;7.29;95.04;102910.59;5009638;28;20683;-81
2021/12/18 11:29:40;;;;;;;4.03;2.67;;;;;;;7.28;95.36;102895.56;5012196;28;20207;-81
2021/12/18 11:32:09;;;;;;;6.53;3.43;;;;;;;7.29;95.51;102902.63;5012346;28;20237;-81
2021/12/18 11:34:37;;;;;;;4.97;3.33;;;;;;;7.30;95.17;102900.84;5014350;28;20194;-81
2021/12/18 11:37:06;;;;;;;6.57;5.97;;;;;;;7.30;94.96;102890.25;5014370;28;20228;-82
2021/12/18 11:39:34;;;;;;;6.07;5.50;;;;;;;7.31;95.07;102897.31;5013743;28;20210;-81
2021/12/18 11:42:03;;;;;;;5.93;5.33;;;;;;;7.30;95.35;102895.56;5013713;28;20194;-81
2021/12/18 11:44:34;;;;;;;5.40;3.73;;;;;;;7.30;95.40;102883.19;5014571;28;20229;-81
2021/12/18 11:47:26;;;;;;;3.90;2.87;;;;;;;7.28;95.17;102879.66;5015348;28;20230;-82
2021/12/18 11:49:54;;;;;;;5.17;4.67;;;;;;;7.28;95.51;102881.44;5017501;28;20198;-81
2021/12/18 11:52:21;;;;;;;6.20;4.83;;;;;;;7.27;95.19;102877.03;5012417;28;20226;-81
2021/12/18 11:54:50;;;;;;;4.13;3.73;;;;;;;7.27;95.21;102885.00;5015558;28;20290;-82
2021/12/18 11:57:38;;;;;;;6.10;5.43;;;;;;;7.25;95.18;102869.09;5016528;28;20222;-81
2021/12/18 12:00:08;;;;;;;5.90;4.50;;;;;;;7.22;95.10;102865.63;5013601;28;20205;-81
2021/12/18 12:02:46;;;;;;;13.00;9.70;;;;;;;7.20;94.41;102878.88;5011462;28;20203;-82
2021/12/18 12:05:13;;;;;;;3.53;2.20;;;;;;;7.20;94.42;102878.00;5012320;28;20214;-81
2021/12/18 12:07:40;;;;;;;29.57;14.93;;;;;;;7.22;94.93;102878.88;5012398;28;20214;-81
2021/12/18 12:10:12;;;;;;;17.40;11.23;;;;;;;7.23;94.86;102870.03;5014301;28;20217;-82